Time;durP1;ratioP1;P1;durP2;ratioP2;P2;SDS_P1;SDS_P2;PMS_P1;PMS_P2;Temp;Humidity;BMP_temperature;BMP_pressure;BME280_temperature;BME280_humidity;BME280_pressure;Samples;Min_cycle;Max_cycle;Signal;HPM_P1;HPM_P2
2023/07/04 00:01:04;;;;;;;6.60;3.17;;;12.20;96.10;;;;;;4984896;28;20132;-72
2023/07/04 00:03:30;;;;;;;;;;;12.20;95.90;;;;;;4992019;28;20025;-72
2023/07/04 00:05:56;;;;;;;7.97;2.38;;;12.10;95.80;;;;;;4987317;28;19964;-73
2023/07/04 00:08:26;;;;;;;7.13;2.47;;;12.20;95.70;;;;;;4984127;28;20058;-72
2023/07/04 00:10:56;;;;;;;5.25;2.05;;;12.20;95.80;;;;;;4985720;28;20090;-72
2023/07/04 00:13:22;;;;;;;7.47;2.35;;;12.20;95.70;;;;;;4984117;28;20430;-72
2023/07/04 00:15:50;;;;;;;7.85;2.10;;;12.10;95.50;;;;;;4972173;28;20117;-71
2023/07/04 00:18:20;;;;;;;4.20;1.95;;;12.10;95.40;;;;;;4965619;28;20442;-72
2023/07/04 00:20:46;;;;;;;4.30;1.85;;;12.10;95.20;;;;;;4983714;28;20041;-72
2023/07/04 00:23:12;;;;;;;5.95;1.90;;;12.10;95.10;;;;;;4984586;28;20038;-71
2023/07/04 00:25:37;;;;;;;5.35;1.80;;;12.10;94.90;;;;;;4985296;28;20039;-72
2023/07/04 00:28:05;;;;;;;4.93;1.83;;;12.10;95.00;;;;;;4970613;28;20387;-72
2023/07/04 00:30:31;;;;;;;3.08;1.10;;;12.00;94.40;;;;;;4986899;28;20022;-71
2023/07/04 00:32:57;;;;;;;4.47;1.30;;;12.00;93.40;;;;;;4990610;28;20378;-71
2023/07/04 00:35:23;;;;;;;3.10;1.27;;;12.00;93.30;;;;;;4982107;28;20046;-72
2023/07/04 00:37:48;;;;;;;3.35;1.30;;;11.90;93.50;;;;;;4968262;28;20034;-71
2023/07/04 00:40:15;;;;;;;6.30;1.40;;;11.80;93.90;;;;;;4987907;28;20023;-72
2023/07/04 00:42:41;;;;;;;1.70;1.20;;;11.70;94.20;;;;;;4993911;28;20018;-71
2023/07/04 00:45:20;;;;;;;3.97;1.10;;;11.70;94.40;;;;;;4991652;28;20112;-72
2023/07/04 00:47:54;;;;;;;3.22;1.30;;;11.60;94.70;;;;;;4968694;28;20108;-72
2023/07/04 00:50:23;;;;;;;3.70;1.27;;;11.50;95.10;;;;;;4967564;28;20034;-72
2023/07/04 00:52:50;;;;;;;3.03;1.40;;;11.50;95.30;;;;;;4985236;28;20351;-71
2023/07/04 00:55:16;;;;;;;4.43;1.25;;;11.40;95.60;;;;;;4989544;28;20030;-72
2023/07/04 00:57:42;;;;;;;4.63;1.55;;;11.40;95.70;;;;;;4973244;28;20034;-71
2023/07/04 01:00:19;;;;;;;2.53;1.20;;;11.40;95.90;;;;;;4992143;28;20105;-71
2023/07/04 01:02:49;;;;;;;5.20;1.55;;;11.30;96.00;;;;;;4987003;28;20053;-71
2023/07/04 01:05:27;;;;;;;2.80;1.10;;;11.30;96.10;;;;;;4983491;28;20097;-72
2023/07/04 01:08:05;;;;;;;4.53;1.50;;;11.30;96.30;;;;;;4986893;28;20035;-72
2023/07/04 01:10:40;;;;;;;4.80;1.58;;;11.30;96.50;;;;;;4975837;28;20088;-71
2023/07/04 01:13:39;;;;;;;4.80;1.55;;;11.30;96.50;;;;;;4994680;28;20059;-72
2023/07/04 01:16:11;;;;;;;7.18;1.73;;;11.20;96.60;;;;;;4987222;28;20454;-72
2023/07/04 01:18:39;;;;;;;7.95;1.75;;;11.20;96.80;;;;;;4978869;28;20058;-72
2023/07/04 01:21:09;;;;;;;4.13;1.80;;;11.30;97.00;;;;;;5001034;28;20129;-72
2023/07/04 01:24:03;;;;;;;3.72;1.60;;;11.20;97.00;;;;;;4989327;28;20022;-73
2023/07/04 01:26:34;;;;;;;5.63;1.60;;;11.20;97.00;;;;;;4989311;28;20371;-73
2023/07/04 01:29:02;;;;;;;8.90;1.73;;;11.20;97.00;;;;;;4987613;28;20032;-72
2023/07/04 01:31:30;;;;;;;4.43;1.90;;;11.30;97.10;;;;;;4985581;28;20057;-72
2023/07/04 01:33:56;;;;;;;6.47;1.70;;;11.20;97.20;;;;;;4989711;28;20540;-72
2023/07/04 01:36:27;;;;;;;5.20;1.70;;;11.20;97.20;;;;;;4986836;28;20423;-72
2023/07/04 01:38:52;;;;;;;6.43;2.08;;;11.30;97.30;;;;;;4987289;28;20074;-72
2023/07/04 01:41:19;;;;;;;4.35;1.98;;;11.30;97.40;;;;;;4993073;28;20138;-72
2023/07/04 01:43:50;;;;;;;7.07;1.65;;;11.20;97.40;;;;;;4995566;28;20424;-72
2023/07/04 01:46:16;;;;;;;5.47;1.63;;;11.20;97.40;;;;;;4986524;28;20050;-72
2023/07/04 01:48:41;;;;;;;4.63;1.90;;;11.20;97.40;;;;;;4988231;28;20049;-72
2023/07/04 01:51:07;;;;;;;4.82;2.08;;;11.20;97.40;;;;;;4990073;28;20438;-72
2023/07/04 01:53:32;;;;;;;7.05;2.10;;;11.10;97.50;;;;;;4985808;28;20382;-72
2023/07/04 01:55:58;;;;;;;7.47;2.47;;;11.10;97.60;;;;;;4972072;28;20293;-72
2023/07/04 01:58:23;;;;;;;7.70;2.15;;;11.10;97.60;;;;;;4990713;28;20109;-72
2023/07/04 02:00:49;;;;;;;9.73;2.35;;;11.20;97.80;;;;;;4985490;28;20060;-72
2023/07/04 02:03:14;;;;;;;6.10;2.15;;;11.30;97.90;;;;;;4975027;28;20529;-72
2023/07/04 02:05:40;;;;;;;10.50;2.72;;;11.30;97.80;;;;;;4983170;28;20038;-72
2023/07/04 02:08:05;;;;;;;13.35;2.25;;;11.30;97.80;;;;;;4972383;28;20062;-72
2023/07/04 02:10:31;;;;;;;7.38;2.30;;;11.40;97.70;;;;;;4985793;28;20041;-72
2023/07/04 02:12:56;;;;;;;11.77;2.53;;;11.30;97.80;;;;;;4987661;28;20136;-73
2023/07/04 02:15:24;;;;;;;6.53;2.53;;;11.30;97.80;;;;;;4975079;28;20042;-73
2023/07/04 02:17:50;;;;;;;11.15;2.60;;;11.20;97.90;;;;;;4987520;28;20038;-73
2023/07/04 02:20:20;;;;;;;10.18;2.70;;;11.20;98.00;;;;;;4992014;28;20137;-72
2023/07/04 02:22:45;;;;;;;9.07;2.55;;;11.20;98.10;;;;;;4972805;28;20411;-72
2023/07/04 02:25:11;;;;;;;8.80;2.25;;;11.10;98.10;;;;;;4984364;28;20080;-72
2023/07/04 02:27:36;;;;;;;10.13;2.67;;;11.10;98.20;;;;;;4988648;28;20058;-72
2023/07/04 02:30:06;;;;;;;7.15;2.70;;;11.10;98.40;;;;;;4979796;28;20034;-72
2023/07/04 02:32:31;;;;;;;12.95;3.08;;;11.20;98.50;;;;;;4982310;28;20034;-72
2023/07/04 02:34:56;;;;;;;13.50;3.42;;;11.10;98.40;;;;;;4986843;28;20095;-73
2023/07/04 02:37:22;;;;;;;9.68;3.78;;;11.10;98.60;;;;;;4986346;28;20038;-72
2023/07/04 02:39:49;;;;;;;10.15;4.55;;;11.20;98.70;;;;;;4982750;28;20077;-72
2023/07/04 02:42:15;;;;;;;10.35;4.88;;;11.30;98.80;;;;;;4990326;28;20022;-72
2023/07/04 02:44:40;;;;;;;11.85;5.15;;;11.40;98.80;;;;;;4968830;28;20466;-72
2023/07/04 02:47:06;;;;;;;15.50;6.05;;;11.40;98.80;;;;;;4988288;28;20129;-72
2023/07/04 02:49:35;;;;;;;15.73;6.47;;;11.40;98.80;;;;;;4971302;28;20022;-72
2023/07/04 02:52:00;;;;;;;13.40;6.57;;;11.50;98.90;;;;;;4965656;28;20027;-72
2023/07/04 02:54:26;;;;;;;13.15;6.20;;;11.50;98.90;;;;;;4988693;28;20033;-72
2023/07/04 02:56:51;;;;;;;14.45;5.57;;;11.50;98.90;;;;;;4971939;28;20062;-72
2023/07/04 02:59:17;;;;;;;17.08;6.07;;;11.50;98.90;;;;;;4990318;28;20034;-72
2023/07/04 03:01:42;;;;;;;18.42;6.82;;;11.50;98.90;;;;;;4986768;28;20108;-71
2023/07/04 03:04:09;;;;;;;18.50;6.80;;;11.50;99.00;;;;;;4992848;28;20380;-72
2023/07/04 03:06:34;;;;;;;15.13;5.90;;;11.60;99.00;;;;;;4990790;28;20025;-72
2023/07/04 03:09:00;;;;;;;16.92;6.97;;;11.60;99.00;;;;;;4979981;28;20030;-72
2023/07/04 03:11:26;;;;;;;14.68;6.65;;;11.70;99.00;;;;;;4987483;28;20042;-72
2023/07/04 03:13:51;;;;;;;15.45;6.57;;;11.60;98.90;;;;;;4997132;28;20038;-72
2023/07/04 03:16:17;;;;;;;17.45;7.63;;;11.60;98.90;;;;;;4969223;28;20026;-72
2023/07/04 03:18:42;;;;;;;17.80;7.18;;;11.60;99.00;;;;;;4989790;28;20088;-72
2023/07/04 03:21:08;;;;;;;16.73;7.05;;;11.60;99.00;;;;;;4983123;28;20030;-72
2023/07/04 03:23:33;;;;;;;18.52;7.20;;;11.60;99.00;;;;;;4975896;28;20030;-72
2023/07/04 03:25:59;;;;;;;21.27;7.20;;;11.50;99.00;;;;;;4966435;28;20344;-72
2023/07/04 03:28:24;;;;;;;19.20;7.13;;;11.50;99.10;;;;;;4985014;28;20098;-72
2023/07/04 03:30:50;;;;;;;21.10;7.05;;;11.60;99.10;;;;;;4984439;28;20061;-72
2023/07/04 03:33:15;;;;;;;20.77;7.43;;;11.50;99.00;;;;;;4995576;28;20048;-73
2023/07/04 03:35:41;;;;;;;18.45;7.63;;;11.50;99.10;;;;;;4967857;28;20186;-72
2023/07/04 03:38:06;;;;;;;23.00;7.55;;;11.50;99.10;;;;;;4969955;28;20160;-72
2023/07/04 03:40:32;;;;;;;25.90;7.93;;;11.50;99.10;;;;;;4988879;28;20047;-72
2023/07/04 03:42:58;;;;;;;19.38;8.13;;;11.50;99.10;;;;;;4987295;28;20493;-72
2023/07/04 03:45:23;;;;;;;21.38;7.03;;;11.50;99.10;;;;;;4988612;28;20347;-72
2023/07/04 03:47:48;;;;;;;17.63;7.88;;;11.50;99.20;;;;;;4989335;28;20122;-72
2023/07/04 03:50:14;;;;;;;27.05;7.68;;;11.60;99.20;;;;;;4986328;28;20391;-72
2023/07/04 03:52:40;;;;;;;17.50;8.43;;;11.60;99.20;;;;;;4985040;28;20138;-72
2023/07/04 03:55:07;;;;;;;23.23;8.30;;;11.60;99.20;;;;;;4965808;28;20125;-72
2023/07/04 03:57:33;;;;;;;21.92;8.68;;;11.60;99.20;;;;;;4987383;28;20038;-72
2023/07/04 03:59:59;;;;;;;18.45;8.50;;;11.60;99.30;;;;;;4984646;28;20445;-72
2023/07/04 04:02:25;;;;;;;19.00;7.75;;;11.60;99.30;;;;;;4991115;28;20034;-72
2023/07/04 04:04:50;;;;;;;20.05;8.50;;;11.60;99.30;;;;;;4988385;28;20672;-73
2023/07/04 04:07:16;;;;;;;20.88;7.95;;;11.60;99.30;;;;;;4963990;28;20131;-72
2023/07/04 04:09:42;;;;;;;19.73;8.27;;;11.70;99.40;;;;;;4985576;28;20118;-72
2023/07/04 04:12:08;;;;;;;22.85;8.18;;;11.70;99.30;;;;;;4985503;28;20088;-72
2023/07/04 04:14:35;;;;;;;22.95;8.82;;;11.70;99.40;;;;;;4965057;28;20034;-73
2023/07/04 04:17:01;;;;;;;24.42;8.63;;;11.70;99.40;;;;;;4958254;28;20117;-72
2023/07/04 04:19:27;;;;;;;24.02;8.93;;;11.80;99.40;;;;;;4986783;28;20121;-72
2023/07/04 04:21:53;;;;;;;26.17;9.43;;;11.80;99.40;;;;;;4982729;28;20081;-71
2023/07/04 04:24:22;;;;;;;20.73;9.25;;;11.90;99.40;;;;;;4994446;28;20035;-72
2023/07/04 04:26:48;;;;;;;21.25;9.20;;;11.90;99.40;;;;;;4986985;28;20030;-71
2023/07/04 04:29:17;;;;;;;23.75;9.57;;;12.00;99.50;;;;;;4970766;28;20117;-69
2023/07/04 04:31:44;;;;;;;23.63;10.02;;;12.00;99.50;;;;;;4998170;28;20065;-68
2023/07/04 04:34:11;;;;;;;24.58;10.02;;;12.10;99.40;;;;;;4985671;28;20105;-68
2023/07/04 04:36:36;;;;;;;29.80;9.52;;;12.10;99.40;;;;;;4985271;28;20061;-69
2023/07/04 04:39:02;;;;;;;24.98;10.00;;;12.20;99.40;;;;;;4988763;28;20470;-68
2023/07/04 04:41:28;;;;;;;22.55;9.88;;;12.20;99.30;;;;;;4990485;28;20113;-68
2023/07/04 04:43:55;;;;;;;21.45;9.95;;;12.20;99.30;;;;;;4990150;28;20026;-68
2023/07/04 04:46:21;;;;;;;22.77;9.70;;;12.30;99.40;;;;;;4982653;28;20088;-68
2023/07/04 04:48:47;;;;;;;27.52;9.75;;;12.30;99.30;;;;;;4987954;28;20038;-68
2023/07/04 04:51:15;;;;;;;25.00;9.63;;;12.40;99.30;;;;;;4987685;28;20112;-68
2023/07/04 04:53:44;;;;;;;25.45;9.85;;;12.40;99.20;;;;;;4994012;28;20054;-68
2023/07/04 04:56:11;;;;;;;25.90;10.32;;;12.50;99.20;;;;;;4984133;28;20026;-68
2023/07/04 04:58:37;;;;;;;23.77;9.93;;;12.50;99.20;;;;;;4972069;28;20367;-68
2023/07/04 05:01:15;;;;;;;21.38;10.00;;;12.60;99.10;;;;;;4989850;28;20044;-68
2023/07/04 05:03:44;;;;;;;17.85;9.23;;;12.60;99.10;;;;;;4985930;28;20026;-68
2023/07/04 05:06:10;;;;;;;25.17;9.57;;;12.60;99.00;;;;;;4984983;28;20034;-68
2023/07/04 05:08:36;;;;;;;19.48;9.68;;;12.60;98.90;;;;;;4966519;28;20336;-69
2023/07/04 05:11:07;;;;;;;25.02;9.82;;;12.80;98.90;;;;;;4986759;28;20438;-68
2023/07/04 05:13:34;;;;;;;27.27;9.60;;;12.80;98.80;;;;;;4983758;28;20070;-68
2023/07/04 05:16:01;;;;;;;21.50;9.63;;;12.80;98.50;;;;;;4973933;28;20046;-68
2023/07/04 05:18:27;;;;;;;20.30;8.90;;;12.90;98.40;;;;;;4993694;28;20124;-68
2023/07/04 05:21:13;;;;;;;22.92;8.80;;;13.00;98.30;;;;;;4987496;28;20039;-68
2023/07/04 05:23:41;;;;;;;16.10;8.15;;;13.00;98.10;;;;;;4996011;28;20054;-68
2023/07/04 05:26:13;;;;;;;19.13;8.65;;;13.00;97.90;;;;;;4986280;28;20018;-68
2023/07/04 05:28:39;;;;;;;15.75;8.18;;;13.10;97.80;;;;;;4989779;28;20033;-69
2023/07/04 05:31:11;;;;;;;16.75;7.53;;;13.10;97.60;;;;;;4969908;28;20026;-69
2023/07/04 05:33:37;;;;;;;16.52;7.78;;;13.10;97.40;;;;;;4987371;28;20114;-68
2023/07/04 05:36:18;;;;;;;18.90;7.63;;;13.20;97.40;;;;;;4983005;28;20029;-68
2023/07/04 05:38:46;;;;;;;17.75;7.45;;;13.30;97.30;;;;;;4988731;28;20034;-68
2023/07/04 05:41:16;;;;;;;13.85;7.00;;;13.30;97.20;;;;;;4985747;28;20026;-68
2023/07/04 05:43:42;;;;;;;15.25;6.53;;;13.20;96.90;;;;;;4988039;28;20038;-68
2023/07/04 05:46:10;;;;;;;15.70;5.97;;;13.30;96.80;;;;;;4983072;28;20042;-68
2023/07/04 05:48:37;;;;;;;10.73;5.38;;;13.30;96.60;;;;;;4990968;28;20380;-68
2023/07/04 05:51:05;;;;;;;14.68;5.53;;;13.40;96.80;;;;;;4984593;28;20172;-68
2023/07/04 05:53:37;;;;;;;11.60;4.72;;;13.50;96.20;;;;;;4986450;28;20038;-68
2023/07/04 05:56:24;;;;;;;15.35;5.18;;;13.70;96.10;;;;;;4989667;28;20029;-68
2023/07/04 05:59:00;;;;;;;14.20;5.18;;;13.90;95.40;;;;;;4982549;28;20102;-67
2023/07/04 06:01:34;;;;;;;8.88;4.20;;;14.00;95.20;;;;;;4990442;28;20106;-68
2023/07/04 06:04:01;;;;;;;11.45;4.00;;;14.00;95.20;;;;;;4991560;28;20157;-68
2023/07/04 06:06:34;;;;;;;11.38;3.90;;;14.20;94.40;;;;;;4994117;28;20478;-68
2023/07/04 06:09:02;;;;;;;7.65;3.30;;;14.50;94.30;;;;;;4994777;28;20057;-68
2023/07/04 06:11:31;;;;;;;7.95;3.33;;;14.50;93.10;;;;;;4993995;28;20133;-68
2023/07/04 06:13:57;;;;;;;9.80;3.35;;;14.60;93.40;;;;;;4989453;28;20109;-68
2023/07/04 06:16:23;;;;;;;7.75;3.10;;;14.60;92.80;;;;;;4988988;28;20423;-68
2023/07/04 06:18:49;;;;;;;9.05;2.95;;;14.50;92.70;;;;;;4984944;28;20418;-68
2023/07/04 06:21:20;;;;;;;10.93;3.15;;;14.50;92.90;;;;;;4985348;28;20102;-68
2023/07/04 06:23:46;;;;;;;10.77;2.95;;;14.60;92.90;;;;;;4992627;28;20026;-68
2023/07/04 06:26:12;;;;;;;10.25;3.17;;;14.70;93.00;;;;;;4986562;28;20434;-68
2023/07/04 06:28:39;;;;;;;7.95;2.50;;;15.00;92.80;;;;;;4989483;28;20033;-69
2023/07/04 06:31:15;;;;;;;10.75;2.92;;;14.80;91.40;;;;;;4988509;28;20485;-68
2023/07/04 06:33:41;;;;;;;9.45;2.53;;;14.80;91.90;;;;;;4989828;28;20026;-68
2023/07/04 06:36:12;;;;;;;7.82;2.67;;;15.10;92.30;;;;;;4986868;28;20338;-68
2023/07/04 06:38:38;;;;;;;7.60;2.53;;;15.10;91.20;;;;;;4981275;28;20145;-68
2023/07/04 06:41:06;;;;;;;7.50;2.60;;;15.40;89.60;;;;;;4989797;28;20132;-68
2023/07/04 06:43:33;;;;;;;7.65;2.40;;;15.50;89.40;;;;;;4988295;28;20022;-68
2023/07/04 06:45:59;;;;;;;6.82;2.53;;;15.40;89.40;;;;;;4988924;28;20057;-68
2023/07/04 06:48:26;;;;;;;7.00;2.72;;;15.50;90.00;;;;;;4988911;28;20316;-68
2023/07/04 06:51:00;;;;;;;5.47;2.08;;;15.70;89.70;;;;;;4986787;28;20022;-68
2023/07/04 06:53:27;;;;;;;6.35;2.30;;;15.70;88.80;;;;;;4986631;28;20080;-69
2023/07/04 06:55:53;;;;;;;13.98;2.63;;;15.60;88.70;;;;;;4989101;28;20037;-69
2023/07/04 06:58:19;;;;;;;8.75;2.17;;;15.50;88.90;;;;;;4971319;28;20034;-68
2023/07/04 07:00:45;;;;;;;8.57;2.63;;;15.50;88.40;;;;;;4996359;28;20034;-68
2023/07/04 07:03:11;;;;;;;8.52;2.47;;;15.50;89.30;;;;;;4992727;28;20148;-67
2023/07/04 07:05:40;;;;;;;5.97;2.42;;;15.50;88.80;;;;;;4985334;28;20038;-68
2023/07/04 07:08:06;;;;;;;9.20;2.80;;;15.50;88.90;;;;;;4987170;28;20072;-68
2023/07/04 07:10:32;;;;;;;7.72;2.70;;;15.80;88.60;;;;;;4992871;28;20034;-68
2023/07/04 07:12:58;;;;;;;7.47;2.50;;;15.90;88.20;;;;;;4991724;28;20041;-68
2023/07/04 07:15:25;;;;;;;10.57;3.00;;;16.00;87.60;;;;;;4988922;28;20034;-69
2023/07/04 07:17:50;;;;;;;7.65;2.22;;;16.30;88.00;;;;;;4978414;28;20466;-68
2023/07/04 07:20:16;;;;;;;7.10;2.40;;;16.10;86.20;;;;;;4986379;28;20114;-69
2023/07/04 07:22:41;;;;;;;8.27;2.13;;;16.00;86.90;;;;;;4987326;28;20042;-68
2023/07/04 07:25:07;;;;;;;7.22;2.50;;;16.00;84.40;;;;;;4984100;28;20042;-68
2023/07/04 07:27:32;;;;;;;6.40;1.95;;;16.20;85.20;;;;;;4981564;28;20022;-68
2023/07/04 07:29:58;;;;;;;6.53;1.60;;;16.20;83.60;;;;;;4987771;28;20065;-68
2023/07/04 07:32:23;;;;;;;6.45;1.70;;;16.60;83.60;;;;;;4969901;28;20033;-68
2023/07/04 07:34:49;;;;;;;12.55;2.17;;;16.70;83.60;;;;;;4986984;28;20418;-67
2023/07/04 07:37:14;;;;;;;7.57;1.50;;;16.80;80.80;;;;;;4987643;28;20042;-68
2023/07/04 07:39:40;;;;;;;5.93;1.23;;;17.10;79.80;;;;;;4974135;28;20434;-69
2023/07/04 07:42:06;;;;;;;5.45;1.55;;;17.00;78.60;;;;;;4993136;28;20027;-69
2023/07/04 07:44:31;;;;;;;5.88;1.50;;;17.30;79.80;;;;;;4987269;28;20334;-68
2023/07/04 07:46:57;;;;;;;7.00;1.55;;;17.60;80.40;;;;;;4986944;28;20069;-68
2023/07/04 07:49:22;;;;;;;6.53;1.63;;;17.60;78.30;;;;;;4989741;28;20109;-68
2023/07/04 07:51:48;;;;;;;5.93;1.35;;;17.50;76.40;;;;;;4975673;28;20121;-68
2023/07/04 07:54:14;;;;;;;5.85;1.38;;;17.20;77.50;;;;;;4990846;28;20118;-67
2023/07/04 07:56:44;;;;;;;4.82;1.35;;;17.40;77.10;;;;;;4988215;28;20452;-68
2023/07/04 07:59:10;;;;;;;4.75;1.23;;;17.40;78.10;;;;;;4991082;28;20053;-68
2023/07/04 08:01:35;;;;;;;4.47;1.23;;;17.60;78.90;;;;;;4983638;28;20044;-67
2023/07/04 08:04:02;;;;;;;6.38;1.38;;;17.00;77.40;;;;;;4990682;28;20053;-67
2023/07/04 08:06:34;;;;;;;5.00;1.30;;;17.00;75.90;;;;;;4970029;28;20230;-67
2023/07/04 08:09:01;;;;;;;6.30;1.60;;;17.30;76.20;;;;;;4971183;28;20030;-68
2023/07/04 08:11:28;;;;;;;6.43;1.50;;;17.20;77.40;;;;;;4969503;28;20027;-67
2023/07/04 08:13:55;;;;;;;4.78;1.27;;;17.00;78.30;;;;;;4971001;28;20487;-68
2023/07/04 08:16:27;;;;;;;3.88;1.17;;;17.40;78.20;;;;;;4983610;28;20038;-67
2023/07/04 08:18:52;;;;;;;4.72;1.52;;;17.70;77.10;;;;;;4990354;28;20092;-68
2023/07/04 08:21:18;;;;;;;6.40;1.70;;;17.80;76.40;;;;;;4986903;28;20022;-67
2023/07/04 08:23:44;;;;;;;4.43;1.20;;;17.80;74.50;;;;;;4990800;28;20430;-68
2023/07/04 08:26:18;;;;;;;9.02;1.48;;;17.50;75.10;;;;;;4999509;28;20098;-67
2023/07/04 08:28:44;;;;;;;6.30;1.20;;;17.40;75.30;;;;;;4985417;28;20109;-68
2023/07/04 08:31:10;;;;;;;6.35;1.15;;;17.60;75.60;;;;;;4984911;28;20462;-68
2023/07/04 08:33:36;;;;;;;7.60;1.45;;;17.30;75.20;;;;;;4978520;28;20102;-70
2023/07/04 08:36:05;;;;;;;4.88;1.20;;;17.40;75.30;;;;;;4983670;28;20049;-68
2023/07/04 08:38:30;;;;;;;5.05;1.35;;;17.30;74.90;;;;;;4986728;28;20104;-67
2023/07/04 08:40:56;;;;;;;6.30;1.50;;;17.00;75.00;;;;;;4980179;28;20122;-67
2023/07/04 08:43:56;;;;;;;5.32;1.10;;;17.00;74.80;;;;;;4979342;28;20042;-67
2023/07/04 08:46:22;;;;;;;3.90;1.00;;;17.00;75.20;;;;;;4964202;28;20169;-67
2023/07/04 08:48:48;;;;;;;5.50;1.20;;;17.10;74.20;;;;;;4987040;28;20035;-68
2023/07/04 08:51:33;;;;;;;2.05;1.20;;;17.50;71.70;;;;;;4977432;28;20049;-68
2023/07/04 08:54:02;;;;;;;4.78;0.90;;;18.00;73.60;;;;;;4993002;28;20088;-69
2023/07/04 08:56:34;;;;;;;4.47;1.35;;;18.50;71.10;;;;;;4986539;28;20025;-69
2023/07/04 08:59:17;;;;;;;4.85;1.45;;;18.70;68.50;;;;;;4975644;28;20104;-69
2023/07/04 09:02:05;;;;;;;3.00;1.10;;;19.10;69.90;;;;;;4982001;28;20085;-68
2023/07/04 09:05:03;;;;;;;2.85;0.90;;;19.50;69.00;;;;;;4982982;28;20027;-68
2023/07/04 09:07:50;;;;;;;3.45;1.05;;;20.00;67.10;;;;;;4974766;28;20463;-69
2023/07/04 09:10:40;;;;;;;4.50;1.20;;;19.40;66.70;;;;;;4990543;28;20038;-68
2023/07/04 09:13:11;;;;;;;3.45;1.05;;;18.60;67.00;;;;;;4988179;28;20082;-67
2023/07/04 09:15:40;;;;;;;3.80;0.88;;;18.10;69.40;;;;;;4994925;28;20030;-68
2023/07/04 09:18:09;;;;;;;3.53;0.98;;;18.10;70.00;;;;;;4997102;28;20419;-68
2023/07/04 09:20:43;;;;;;;3.22;0.95;;;17.90;69.10;;;;;;4974051;28;20023;-68
2023/07/04 09:23:13;;;;;;;3.08;0.93;;;17.90;69.90;;;;;;4994335;28;22017;-67
2023/07/04 09:25:39;;;;;;;2.70;1.10;;;17.60;68.90;;;;;;4982626;28;20148;-68
2023/07/04 09:28:05;;;;;;;2.75;0.80;;;17.50;72.00;;;;;;4989082;28;20026;-67
2023/07/04 09:30:31;;;;;;;4.10;1.02;;;17.50;72.20;;;;;;4988369;28;20106;-68
2023/07/04 09:32:57;;;;;;;3.47;1.00;;;17.80;72.20;;;;;;4985387;28;20088;-68
2023/07/04 09:35:22;;;;;;;2.42;0.90;;;17.90;72.20;;;;;;4987108;28;20320;-68
2023/07/04 09:38:01;;;;;;;2.83;1.00;;;18.40;72.10;;;;;;4983605;28;20283;-68
2023/07/04 09:40:50;;;;;;;3.67;1.00;;;18.50;71.10;;;;;;4985477;28;20042;-68
2023/07/04 09:43:31;;;;;;;3.58;1.00;;;18.80;69.40;;;;;;4984807;28;20475;-68
2023/07/04 09:46:21;;;;;;;3.38;1.15;;;19.20;69.60;;;;;;4983471;28;20471;-68
2023/07/04 09:48:46;;;;;;;3.60;1.17;;;19.10;69.60;;;;;;4986311;28;20026;-70
2023/07/04 09:51:31;;;;;;;5.43;1.30;;;19.00;69.90;;;;;;4979563;28;20194;-67
2023/07/04 09:54:11;;;;;;;2.78;1.15;;;18.70;70.50;;;;;;4991941;28;20049;-68
2023/07/04 09:56:37;;;;;;;2.00;1.13;;;18.50;71.30;;;;;;4990948;28;20109;-67
2023/07/04 09:59:17;;;;;;;5.78;1.15;;;18.30;71.70;;;;;;4984784;28;20549;-67
2023/07/04 10:01:48;;;;;;;5.57;1.17;;;18.50;71.50;;;;;;4982842;28;20153;-68
2023/07/04 10:04:21;;;;;;;;;;;18.70;71.50;;;;;;4965629;28;20038;-67
2023/07/04 10:06:50;;;;;;;3.15;1.00;;;18.50;68.40;;;;;;4984373;28;20076;-66
2023/07/04 10:09:20;;;;;;;5.95;1.35;;;18.20;68.40;;;;;;4988335;28;20088;-69
2023/07/04 10:11:51;;;;;;;5.07;0.90;;;17.90;66.40;;;;;;4981358;28;20066;-67
2023/07/04 10:14:29;;;;;;;;;;;18.00;67.60;;;;;;4981982;28;20054;-67
2023/07/04 10:16:55;;;;;;;5.43;1.20;;;17.90;68.70;;;;;;4987347;28;19916;-67
2023/07/04 10:19:22;;;;;;;3.30;0.93;;;17.70;66.90;;;;;;4989492;28;20101;-67
2023/07/04 10:21:51;;;;;;;5.35;1.13;;;17.80;66.50;;;;;;4986851;28;20125;-67
2023/07/04 10:24:24;;;;;;;4.55;1.23;;;18.00;65.60;;;;;;4969337;28;20108;-68
2023/07/04 10:26:56;;;;;;;3.95;1.25;;;18.30;66.40;;;;;;4985748;28;20090;-67
2023/07/04 10:29:45;;;;;;;3.63;1.10;;;18.60;64.40;;;;;;4984539;28;20122;-68
2023/07/04 10:32:14;;;;;;;4.13;0.95;;;18.70;64.40;;;;;;4986682;28;20065;-68
2023/07/04 10:34:42;;;;;;;5.13;1.10;;;18.70;64.20;;;;;;4984173;28;20039;-68
2023/07/04 10:37:15;;;;;;;3.42;0.90;;;18.60;63.10;;;;;;4983945;28;20044;-66
2023/07/04 10:39:41;;;;;;;5.50;1.05;;;18.60;63.10;;;;;;4985364;28;20030;-68
2023/07/04 10:42:23;;;;;;;2.63;1.20;;;18.50;63.80;;;;;;4982163;28;20056;-65
2023/07/04 10:44:52;;;;;;;4.15;0.95;;;18.50;65.10;;;;;;4983516;28;20137;-64
2023/07/04 10:47:25;;;;;;;7.95;1.20;;;18.60;64.30;;;;;;4979889;28;20399;-66
2023/07/04 10:49:56;;;;;;;3.03;0.95;;;18.70;64.70;;;;;;4985003;28;20213;-66
2023/07/04 10:52:28;;;;;;;3.15;0.80;;;18.90;65.00;;;;;;4983921;28;20045;-64
2023/07/04 10:54:53;;;;;;;5.63;1.00;;;18.90;65.00;;;;;;4985997;28;20157;-65
2023/07/04 10:57:34;;;;;;;4.30;0.90;;;18.80;64.70;;;;;;4987266;28;20126;-65
2023/07/04 11:00:13;;;;;;;3.55;1.13;;;18.70;65.60;;;;;;4987682;28;20053;-67
2023/07/04 11:02:47;;;;;;;4.65;0.95;;;18.90;64.20;;;;;;4980734;28;20088;-65
2023/07/04 11:05:19;;;;;;;2.17;1.00;;;19.00;63.50;;;;;;4979190;28;20202;-66
2023/07/04 11:07:45;;;;;;;6.35;1.13;;;19.50;63.30;;;;;;4984170;28;20047;-65
2023/07/04 11:10:13;;;;;;;4.55;1.40;;;19.60;63.00;;;;;;4986626;28;20062;-66
2023/07/04 11:12:42;;;;;;;6.18;1.15;;;20.00;62.60;;;;;;4982063;28;20482;-65
2023/07/04 11:15:29;;;;;;;3.25;1.35;;;19.70;60.60;;;;;;4981937;28;20053;-66
2023/07/04 11:17:55;;;;;;;2.30;0.85;;;19.80;62.60;;;;;;4980248;28;20486;-65
2023/07/04 11:20:42;;;;;;;3.20;0.90;;;19.30;60.30;;;;;;4987398;28;20026;-64
2023/07/04 11:23:18;;;;;;;5.10;0.80;;;18.90;61.60;;;;;;4973716;28;20407;-69
2023/07/04 11:25:43;;;;;;;6.75;1.25;;;18.60;60.20;;;;;;4984628;28;20461;-64
2023/07/04 11:28:41;;;;;;;5.45;1.00;;;18.50;61.10;;;;;;4984609;28;20121;-65
2023/07/04 11:31:30;;;;;;;8.23;1.10;;;18.50;62.40;;;;;;4983674;28;20026;-65
2023/07/04 11:33:56;;;;;;;2.83;0.90;;;18.20;62.30;;;;;;4990036;28;20109;-65
2023/07/04 11:36:45;;;;;;;4.88;1.02;;;18.20;62.20;;;;;;4982898;28;20403;-65
2023/07/04 11:39:28;;;;;;;6.28;1.33;;;18.10;63.30;;;;;;4986155;28;20030;-65
2023/07/04 11:41:55;;;;;;;4.13;1.08;;;18.20;62.80;;;;;;4983938;28;20507;-65
2023/07/04 11:44:30;;;;;;;12.35;1.25;;;18.40;64.00;;;;;;4983772;28;20022;-65
2023/07/04 11:47:07;;;;;;;4.00;1.10;;;18.40;62.40;;;;;;4986047;28;20420;-65
2023/07/04 11:49:33;;;;;;;3.63;1.17;;;18.50;61.90;;;;;;4988563;28;20049;-65
2023/07/04 11:52:20;;;;;;;2.63;0.90;;;18.40;62.60;;;;;;4981940;28;20050;-65
2023/07/04 11:54:58;;;;;;;4.95;1.30;;;18.50;62.60;;;;;;4986114;28;20038;-65
2023/07/04 11:57:44;;;;;;;4.88;1.00;;;18.50;63.40;;;;;;4983412;28;20053;-65
2023/07/04 12:00:41;;;;;;;2.80;0.80;;;18.50;62.30;;;;;;4987847;28;20066;-66
2023/07/04 12:03:19;;;;;;;2.88;1.20;;;18.10;61.60;;;;;;4983944;28;20034;-67
2023/07/04 12:05:58;;;;;;;3.75;1.10;;;18.00;63.00;;;;;;4986163;28;20105;-67
2023/07/04 12:08:40;;;;;;;5.65;1.30;;;18.00;63.90;;;;;;4982638;28;20437;-64
2023/07/04 12:11:21;;;;;;;3.10;1.00;;;17.80;65.10;;;;;;4986457;28;20031;-66
2023/07/04 12:13:49;;;;;;;2.08;1.10;;;17.60;64.20;;;;;;4989729;28;20041;-65
2023/07/04 12:16:19;;;;;;;5.38;1.10;;;17.40;62.60;;;;;;4982333;28;20038;-65
2023/07/04 12:18:45;;;;;;;3.38;1.10;;;17.20;62.90;;;;;;4988874;28;20034;-64
2023/07/04 12:21:18;;;;;;;4.18;0.75;;;17.00;64.00;;;;;;4993345;28;20105;-64
2023/07/04 12:23:46;;;;;;;2.92;0.90;;;17.00;64.10;;;;;;4986402;28;20117;-65
2023/07/04 12:26:18;;;;;;;3.05;1.10;;;16.90;61.20;;;;;;4982570;28;20045;-64
2023/07/04 12:28:46;;;;;;;3.15;1.05;;;17.00;60.80;;;;;;4985408;28;20018;-64
2023/07/04 12:31:14;;;;;;;3.05;0.85;;;17.10;60.90;;;;;;4985502;28;20346;-64
2023/07/04 12:33:44;;;;;;;2.97;1.08;;;17.50;59.20;;;;;;4988033;28;20044;-65
2023/07/04 12:36:14;;;;;;;3.17;0.82;;;18.00;59.60;;;;;;4984701;28;20065;-65
2023/07/04 12:38:50;;;;;;;3.20;0.98;;;18.40;58.70;;;;;;4991570;28;20192;-65
2023/07/04 12:41:25;;;;;;;3.72;1.17;;;18.30;57.10;;;;;;4985891;28;20038;-66
2023/07/04 12:44:02;;;;;;;6.40;1.10;;;18.50;57.20;;;;;;4987593;28;20316;-64
2023/07/04 12:46:30;;;;;;;3.25;1.10;;;18.70;56.80;;;;;;4985639;28;20046;-64
2023/07/04 12:48:57;;;;;;;3.75;0.93;;;18.90;56.30;;;;;;4986859;28;20023;-65
2023/07/04 12:51:27;;;;;;;2.45;1.00;;;19.00;57.30;;;;;;4983862;28;20108;-65
2023/07/04 12:53:55;;;;;;;2.85;0.95;;;19.30;56.60;;;;;;4994581;28;20118;-64
2023/07/04 12:56:20;;;;;;;4.55;0.90;;;19.00;57.50;;;;;;4998177;28;20022;-64